createdAt,value
2019-04-14T00:01:30.528Z,20.37
2019-04-14T00:04:31.225Z,20.43
2019-04-14T00:07:03.693Z,20.83
2019-04-14T00:09:36.305Z,20.33
2019-04-14T00:12:09.017Z,20.00
2019-04-14T00:14:40.411Z,20.57
2019-04-14T00:17:11.276Z,21.90
2019-04-14T00:19:44.147Z,19.87
2019-04-14T00:22:16.203Z,21.67
2019-04-14T00:24:48.949Z,20.70
2019-04-14T00:27:21.231Z,21.33
2019-04-14T00:29:53.214Z,21.30
2019-04-14T00:32:24.833Z,20.90
2019-04-14T00:35:21.003Z,20.80
2019-04-14T00:38:17.465Z,21.13
2019-04-14T00:41:13.730Z,20.10
2019-04-14T00:44:09.991Z,21.17
2019-04-14T00:46:55.978Z,22.20
2019-04-14T00:49:28.902Z,21.20
2019-04-14T00:52:01.521Z,20.07
2019-04-14T00:54:34.638Z,20.37
2019-04-14T00:57:05.269Z,21.07
2019-04-14T00:59:38.408Z,21.20
2019-04-14T01:02:09.883Z,21.73
2019-04-14T01:04:42.669Z,18.60
2019-04-14T01:07:13.462Z,18.60
2019-04-14T01:09:44.326Z,19.83
2019-04-14T01:12:17.091Z,20.93
2019-04-14T01:14:49.474Z,19.23
2019-04-14T01:17:22.015Z,18.90
2019-04-14T01:19:55.462Z,19.30
2019-04-14T01:22:27.511Z,17.77
2019-04-14T01:24:59.995Z,19.60
2019-04-14T01:27:30.450Z,17.70
2019-04-14T01:30:04.518Z,17.70
2019-04-14T01:32:37.604Z,19.40
2019-04-14T01:35:09.635Z,20.03
2019-04-14T01:37:41.886Z,18.47
2019-04-14T01:40:12.475Z,19.27
2019-04-14T01:42:46.370Z,21.27
2019-04-14T01:45:18.647Z,21.90
2019-04-14T01:47:49.591Z,20.37
2019-04-14T01:50:23.437Z,20.70
2019-04-14T01:53:22.865Z,20.87
2019-04-14T01:56:05.651Z,19.57
2019-04-14T01:58:49.759Z,21.87
2019-04-14T02:01:32.460Z,21.27
2019-04-14T02:04:05.575Z,21.77
2019-04-14T02:06:37.604Z,20.87
2019-04-14T02:09:10.401Z,21.23
2019-04-14T02:11:40.886Z,20.87
2019-04-14T02:14:14.778Z,18.50
2019-04-14T02:16:53.579Z,19.67
2019-04-14T02:19:21.936Z,19.00
2019-04-14T02:21:54.679Z,20.60
2019-04-14T02:24:26.340Z,20.47
2019-04-14T02:26:59.121Z,21.67
2019-04-14T02:29:29.838Z,20.80
2019-04-14T02:32:43.363Z,19.80
2019-04-14T02:35:03.046Z,19.93
2019-04-14T02:37:44.860Z,21.87
2019-04-14T02:40:12.969Z,20.80
2019-04-14T02:42:48.270Z,20.27
2019-04-14T02:45:22.632Z,19.53
2019-04-14T02:50:26.332Z,17.93
2019-04-14T02:53:01.667Z,19.97
2019-04-14T02:55:31.777Z,19.83
2019-04-14T02:58:16.076Z,19.83
2019-04-14T03:00:41.436Z,20.47
2019-04-14T03:03:17.949Z,22.20
2019-04-14T03:08:23.595Z,19.90
2019-04-14T03:15:56.855Z,18.63
2019-04-14T03:18:54.333Z,19.73
2019-04-14T03:22:05.139Z,19.00
2019-04-14T03:24:39.172Z,20.93
2019-04-14T03:27:45.819Z,19.50
2019-04-14T03:33:32.509Z,19.13
2019-04-14T03:38:20.570Z,20.43
2019-04-14T03:40:45.809Z,20.60
2019-04-14T03:43:18.806Z,20.23
2019-04-14T03:45:51.998Z,19.97
2019-04-14T03:48:45.087Z,20.60
2019-04-14T03:51:00.396Z,21.90
2019-04-14T03:53:27.190Z,22.80
2019-04-14T03:56:14.909Z,21.53
2019-04-14T03:58:47.215Z,21.20
2019-04-14T04:01:19.397Z,20.33
2019-04-14T04:03:52.168Z,22.30
2019-04-14T04:06:24.567Z,22.57
2019-04-14T04:08:55.463Z,22.80
2019-04-14T04:11:26.144Z,23.13
2019-04-14T04:13:58.541Z,22.70
2019-04-14T04:16:51.390Z,23.70
2019-04-14T04:19:29.426Z,23.33
2019-04-14T04:22:19.311Z,23.53
2019-04-14T04:25:00.808Z,26.00
2019-04-14T04:27:46.175Z,27.07
2019-04-14T04:30:34.564Z,25.10
2019-04-14T04:33:30.943Z,25.97
2019-04-14T04:36:05.302Z,24.70
2019-04-14T04:38:46.382Z,26.07
2019-04-14T04:41:17.207Z,25.20
2019-04-14T04:43:49.378Z,23.00
2019-04-14T04:46:22.083Z,25.70
2019-04-14T04:49:03.364Z,26.53
2019-04-14T04:51:25.387Z,25.93
2019-04-14T04:53:57.055Z,25.40
2019-04-14T04:56:27.580Z,27.57
2019-04-14T04:59:01.068Z,27.70
2019-04-14T05:01:31.788Z,25.37
2019-04-14T05:04:04.635Z,25.00
2019-04-14T05:07:07.783Z,29.92
2019-04-14T05:10:04.697Z,27.47
2019-04-14T05:12:47.860Z,27.80
2019-04-14T05:15:40.274Z,28.50
2019-04-14T05:18:24.672Z,27.23
2019-04-14T05:20:57.437Z,28.83
2019-04-14T05:23:29.933Z,27.27
2019-04-14T05:26:01.050Z,27.80
2019-04-14T05:28:31.647Z,28.97
2019-04-14T05:31:03.337Z,27.07
2019-04-14T05:33:36.033Z,28.27
2019-04-14T05:36:06.602Z,28.70
2019-04-14T05:38:40.780Z,27.90
2019-04-14T05:41:13.786Z,29.17
2019-04-14T05:43:52.004Z,27.27
2019-04-14T05:46:20.765Z,26.33
2019-04-14T05:48:51.498Z,26.80
2019-04-14T05:51:23.319Z,26.60
2019-04-14T05:53:54.695Z,24.80
2019-04-14T05:56:25.766Z,24.90
2019-04-14T05:58:57.887Z,24.50
2019-04-14T06:01:46.527Z,23.00
2019-04-14T06:04:17.829Z,23.70
2019-04-14T06:06:48.802Z,24.73
2019-04-14T06:09:20.743Z,23.80
2019-04-14T06:11:53.816Z,25.90
2019-04-14T06:14:26.816Z,24.90
2019-04-14T06:16:57.836Z,23.90
2019-04-14T06:19:37.826Z,24.37
2019-04-14T06:22:01.894Z,23.10
2019-04-14T06:24:32.944Z,23.77
2019-04-14T06:27:03.766Z,23.60
2019-04-14T06:29:36.868Z,23.43
2019-04-14T06:32:47.153Z,22.90
2019-04-14T06:35:41.212Z,22.60
2019-04-14T06:38:22.349Z,21.50
2019-04-14T06:40:58.483Z,21.70
2019-04-14T06:43:29.972Z,22.37
2019-04-14T06:46:01.966Z,23.87
2019-04-14T06:48:33.058Z,23.23
2019-04-14T06:51:04.311Z,23.00
2019-04-14T06:53:35.912Z,24.93
2019-04-14T06:56:06.649Z,23.33
2019-04-14T06:58:37.223Z,24.47
2019-04-14T07:01:07.843Z,25.57
2019-04-14T07:03:38.374Z,24.63
2019-04-14T07:06:09.006Z,24.83
2019-04-14T07:08:39.534Z,24.73
2019-04-14T07:11:10.147Z,26.73
2019-04-14T07:13:40.719Z,22.87
2019-04-14T07:16:11.154Z,26.10
2019-04-14T07:18:42.014Z,24.13
2019-04-14T07:21:12.665Z,24.60
2019-04-14T07:23:43.174Z,25.60
2019-04-14T07:26:13.823Z,24.17
2019-04-14T07:28:56.199Z,26.23
2019-04-14T07:31:42.383Z,24.10
2019-04-14T07:34:32.185Z,25.30
2019-04-14T07:37:21.477Z,24.63
2019-04-14T07:40:07.592Z,27.30
2019-04-14T07:42:47.499Z,26.90
2019-04-14T07:45:52.064Z,25.67
2019-04-14T07:48:34.505Z,27.60
2019-04-14T07:51:20.218Z,26.13
2019-04-14T07:53:57.065Z,26.93
2019-04-14T07:56:51.244Z,28.80
2019-04-14T07:59:31.252Z,27.10
2019-04-14T08:02:22.215Z,28.53
2019-04-14T08:05:05.215Z,30.47
2019-04-14T08:07:36.599Z,31.30
2019-04-14T08:10:08.616Z,27.90
2019-04-14T08:12:39.306Z,30.37
2019-04-14T08:15:10.136Z,28.60
2019-04-14T08:17:43.454Z,28.33
2019-04-14T08:20:26.495Z,28.80
2019-04-14T08:22:47.289Z,29.20
2019-04-14T08:25:17.826Z,29.30
2019-04-14T08:27:49.669Z,28.27
2019-04-14T08:30:20.619Z,27.50
2019-04-14T08:32:53.569Z,28.67
2019-04-14T08:35:26.550Z,27.97
2019-04-14T08:37:57.955Z,28.17
2019-04-14T08:40:29.602Z,26.10
2019-04-14T08:43:35.210Z,29.60
2019-04-14T08:46:27.298Z,28.80
2019-04-14T08:49:04.846Z,28.10
2019-04-14T08:51:50.796Z,29.13
2019-04-14T08:54:29.670Z,28.70
2019-04-14T08:57:13.025Z,28.47
2019-04-14T09:00:00.242Z,27.07
2019-04-14T09:02:50.049Z,27.00
2019-04-14T09:05:30.230Z,27.40
2019-04-14T09:08:25.261Z,28.90
2019-04-14T09:10:58.675Z,26.97
2019-04-14T09:13:29.523Z,27.10
2019-04-14T09:16:00.566Z,26.37
2019-04-14T09:18:33.523Z,28.40
2019-04-14T09:21:04.736Z,28.30
2019-04-14T09:23:37.730Z,26.10
2019-04-14T09:26:08.629Z,26.47
2019-04-14T09:28:39.689Z,27.30
2019-04-14T09:31:10.776Z,27.30
2019-04-14T09:33:43.779Z,29.73
2019-04-14T09:36:14.217Z,27.17
2019-04-14T09:38:44.814Z,26.33
2019-04-14T09:41:15.246Z,26.33
2019-04-14T09:43:45.804Z,26.73
2019-04-14T09:46:16.532Z,26.00
2019-04-14T09:48:47.138Z,25.70
2019-04-14T09:51:17.962Z,25.83
2019-04-14T09:53:48.330Z,26.13
2019-04-14T09:56:18.832Z,26.10
2019-04-14T09:58:49.522Z,23.50
2019-04-14T10:01:21.647Z,25.03
2019-04-14T10:03:52.245Z,25.17
2019-04-14T10:06:24.006Z,23.53
2019-04-14T10:08:56.945Z,24.30
2019-04-14T10:11:27.922Z,24.10
2019-04-14T10:13:58.955Z,24.63
2019-04-14T10:16:31.870Z,23.13
2019-04-14T10:19:02.960Z,25.20
2019-04-14T10:21:34.031Z,21.93
2019-04-14T10:24:06.907Z,24.43
2019-04-14T10:26:38.028Z,25.37
2019-04-14T10:29:08.967Z,24.23
2019-04-14T10:31:41.967Z,23.87
2019-04-14T10:34:12.819Z,23.17
2019-04-14T10:36:43.285Z,24.50
2019-04-14T10:39:13.844Z,25.00
2019-04-14T10:41:44.273Z,24.87
2019-04-14T10:44:14.929Z,24.83
2019-04-14T10:46:45.546Z,24.50
2019-04-14T10:49:16.185Z,24.67
2019-04-14T10:51:46.849Z,26.17
2019-04-14T10:54:17.323Z,24.37
2019-04-14T10:56:47.858Z,26.17
2019-04-14T10:59:18.266Z,25.43
2019-04-14T11:01:49.069Z,25.43
2019-04-14T11:04:19.683Z,27.50
2019-04-14T11:07:09.131Z,30.97
2019-04-14T11:09:41.186Z,30.63
2019-04-14T11:12:12.258Z,30.10
2019-04-14T11:14:45.259Z,29.90
2019-04-14T11:17:17.333Z,30.97
2019-04-14T11:19:50.155Z,29.33
2019-04-14T11:22:21.247Z,29.07
2019-04-14T11:24:54.072Z,29.00
2019-04-14T11:27:24.766Z,27.47
2019-04-14T11:29:55.167Z,26.80
2019-04-14T11:32:41.425Z,28.53
2019-04-14T11:35:22.884Z,29.80
2019-04-14T11:38:15.828Z,30.13
2019-04-14T11:40:50.602Z,30.10
2019-04-14T11:43:21.428Z,29.90
2019-04-14T11:45:53.343Z,29.87
2019-04-14T11:48:24.501Z,27.67
2019-04-14T11:50:55.726Z,29.53
2019-04-14T11:53:27.391Z,29.17
2019-04-14T11:55:58.300Z,28.00
2019-04-14T11:58:29.291Z,28.23
2019-04-14T12:01:27.456Z,28.00
2019-04-14T12:04:11.062Z,29.43
2019-04-14T12:06:59.605Z,28.20
2019-04-14T12:09:43.447Z,28.07
2019-04-14T12:12:14.422Z,27.83
2019-04-14T12:14:47.548Z,29.17
2019-04-14T12:17:18.121Z,29.70
2019-04-14T12:19:49.511Z,31.30
2019-04-14T12:22:21.537Z,32.07
2019-04-14T12:24:53.388Z,30.07
2019-04-14T12:27:23.977Z,29.97
2019-04-14T12:29:54.499Z,31.20
2019-04-14T12:32:25.098Z,31.70
2019-04-14T12:34:55.767Z,32.40
2019-04-14T12:37:26.370Z,30.53
2019-04-14T12:39:57.071Z,31.70
2019-04-14T12:42:58.566Z,30.30
2019-04-14T12:45:48.460Z,29.90
2019-04-14T12:48:43.365Z,31.57
2019-04-14T12:51:21.571Z,33.93
2019-04-14T12:53:54.622Z,32.40
2019-04-14T12:56:28.507Z,32.93
2019-04-14T12:59:23.108Z,33.10
2019-04-14T13:02:13.421Z,35.17
2019-04-14T13:04:44.900Z,35.27
2019-04-14T13:07:15.536Z,31.73
2019-04-14T13:09:48.634Z,34.83
2019-04-14T13:12:19.201Z,35.97
2019-04-14T13:14:51.366Z,34.77
2019-04-14T13:17:23.802Z,34.37
2019-04-14T13:19:56.831Z,34.37
2019-04-14T13:22:33.934Z,33.30
2019-04-14T13:25:00.833Z,36.07
2019-04-14T13:27:31.783Z,37.63
2019-04-14T13:30:02.209Z,36.93
2019-04-14T13:32:36.256Z,37.37
2019-04-14T13:35:07.344Z,38.33
2019-04-14T13:37:38.979Z,37.10
2019-04-14T13:40:10.886Z,39.70
2019-04-14T13:42:41.277Z,36.17
2019-04-14T13:45:12.045Z,42.47
2019-04-14T13:47:43.085Z,39.50
2019-04-14T13:50:15.978Z,37.27
2019-04-14T13:52:47.510Z,40.33
2019-04-14T13:55:18.192Z,41.80
2019-04-14T13:57:51.235Z,39.50
2019-04-14T14:00:24.202Z,42.70
2019-04-14T14:02:57.006Z,40.87
2019-04-14T14:05:29.926Z,41.00
2019-04-14T14:08:02.104Z,40.27
2019-04-14T14:10:33.267Z,41.93
2019-04-14T14:13:17.533Z,40.23
2019-04-14T14:16:16.187Z,41.43
2019-04-14T14:18:59.408Z,42.17
2019-04-14T14:21:44.063Z,44.70
2019-04-14T14:24:42.848Z,45.03
2019-04-14T14:27:16.052Z,44.67
2019-04-14T14:29:49.040Z,44.17
2019-04-14T14:32:35.308Z,44.20
2019-04-14T14:35:07.350Z,47.30
2019-04-14T14:37:39.175Z,45.30
2019-04-14T14:40:10.347Z,45.43
2019-04-14T14:42:40.777Z,46.13
2019-04-14T14:45:42.428Z,45.03
2019-04-14T14:48:19.694Z,43.50
2019-04-14T14:51:09.174Z,44.70
2019-04-14T14:53:40.243Z,44.37
2019-04-14T14:56:13.257Z,45.10
2019-04-14T14:58:45.457Z,45.77
2019-04-14T15:01:18.062Z,45.90
2019-04-14T15:03:48.474Z,45.87
2019-04-14T15:06:20.511Z,46.00
2019-04-14T15:08:52.279Z,45.60
2019-04-14T15:11:24.189Z,47.30
2019-04-14T15:13:56.300Z,44.00
2019-04-14T15:16:27.310Z,45.83
2019-04-14T15:19:00.414Z,46.50
2019-04-14T15:21:31.384Z,48.33
2019-04-14T15:24:02.287Z,43.97
2019-04-14T15:26:35.278Z,46.33
2019-04-14T15:29:06.225Z,45.17
2019-04-14T15:31:36.957Z,44.67
2019-04-14T15:34:07.467Z,44.90
2019-04-14T15:36:38.084Z,46.07
2019-04-14T15:39:09.303Z,44.40
2019-04-14T15:41:42.465Z,44.87
2019-04-14T15:44:15.371Z,45.20
2019-04-14T15:46:46.377Z,43.97
2019-04-14T15:49:18.065Z,44.43
2019-04-14T15:51:49.500Z,44.63
2019-04-14T15:54:21.459Z,45.30
2019-04-14T15:57:19.780Z,47.50
2019-04-14T16:00:11.307Z,45.90
2019-04-14T16:03:04.289Z,46.63
2019-04-14T16:05:44.145Z,46.73
2019-04-14T16:08:20.398Z,45.07
2019-04-14T16:11:10.521Z,44.80
2019-04-14T16:13:53.757Z,45.70
2019-04-14T16:16:47.091Z,47.20
2019-04-14T16:19:37.313Z,46.63
2019-04-14T16:22:09.669Z,44.27
2019-04-14T16:24:40.607Z,45.90
2019-04-14T16:27:23.246Z,45.17
2019-04-14T16:30:15.512Z,45.70
2019-04-14T16:33:04.185Z,45.00
2019-04-14T16:35:38.241Z,44.50
2019-04-14T16:38:10.922Z,43.50
2019-04-14T16:40:41.785Z,45.10
2019-04-14T16:43:14.775Z,43.60
2019-04-14T16:45:45.641Z,46.07
2019-04-14T16:48:16.139Z,45.23
2019-04-14T16:50:46.883Z,42.97
2019-04-14T16:53:23.109Z,42.90
2019-04-14T16:56:10.296Z,44.10
2019-04-14T16:58:47.717Z,43.07
2019-04-14T17:01:23.148Z,45.20
2019-04-14T17:03:53.602Z,43.97
2019-04-14T17:06:24.792Z,44.17
2019-04-14T17:08:56.900Z,43.87
2019-04-14T17:11:27.312Z,41.37
2019-04-14T17:14:25.499Z,43.17
2019-04-14T17:17:19.624Z,42.13
2019-04-14T17:20:05.279Z,40.60
2019-04-14T17:22:54.803Z,43.07
2019-04-14T17:25:32.571Z,41.93
2019-04-14T17:28:16.500Z,40.63
2019-04-14T17:30:53.509Z,40.97
2019-04-14T17:33:37.265Z,42.40
2019-04-14T17:36:27.786Z,41.80
2019-04-14T17:39:25.059Z,43.23
2019-04-14T17:42:03.127Z,43.90
2019-04-14T17:44:53.850Z,41.40
2019-04-14T17:47:45.365Z,44.60
2019-04-14T17:50:40.986Z,44.50
2019-04-14T17:53:30.666Z,43.10
2019-04-14T17:56:26.646Z,43.70
2019-04-14T17:59:03.149Z,42.53
2019-04-14T18:01:55.118Z,43.47
2019-04-14T18:04:52.956Z,44.33
2019-04-14T18:07:32.961Z,43.27
2019-04-14T18:10:22.720Z,43.37
2019-04-14T18:13:13.639Z,44.93
2019-04-14T18:16:04.787Z,44.33
2019-04-14T18:18:57.142Z,46.23
2019-04-14T18:21:30.208Z,44.60
2019-04-14T18:24:02.983Z,45.80
2019-04-14T18:26:33.632Z,43.20
2019-04-14T18:29:21.366Z,43.13
2019-04-14T18:32:14.199Z,43.87
2019-04-14T18:35:02.557Z,44.70
2019-04-14T18:38:00.018Z,45.40
2019-04-14T18:40:43.579Z,43.63
2019-04-14T18:43:30.218Z,43.97
2019-04-14T18:46:23.276Z,45.27
2019-04-14T18:48:59.592Z,43.97
2019-04-14T18:51:38.305Z,47.20
2019-04-14T18:54:22.765Z,46.40
2019-04-14T18:57:19.045Z,44.67
2019-04-14T19:00:20.230Z,44.33
2019-04-14T19:02:52.587Z,48.17
2019-04-14T19:05:24.480Z,44.97
2019-04-14T19:07:58.828Z,45.37
2019-04-14T19:10:29.291Z,46.43
2019-04-14T19:13:17.050Z,46.83
2019-04-14T19:15:57.899Z,45.13
2019-04-14T19:18:41.698Z,47.83
2019-04-14T19:21:25.677Z,46.97
2019-04-14T19:23:56.452Z,47.17
2019-04-14T19:26:28.360Z,46.27
2019-04-14T19:29:01.450Z,46.90
2019-04-14T19:31:32.582Z,50.60
2019-04-14T19:34:03.466Z,45.73
2019-04-14T19:36:34.185Z,48.43
2019-04-14T19:39:08.824Z,48.67
2019-04-14T19:41:41.509Z,46.90
2019-04-14T19:44:13.498Z,49.80
2019-04-14T19:46:45.621Z,49.73
2019-04-14T19:49:17.594Z,47.43
2019-04-14T19:51:48.592Z,48.57
2019-04-14T19:54:18.958Z,47.73
2019-04-14T19:56:50.536Z,50.00
2019-04-14T19:59:21.710Z,50.53
2019-04-14T20:01:57.355Z,50.60
2019-04-14T20:04:28.674Z,49.27
2019-04-14T20:07:04.588Z,49.80
2019-04-14T20:09:35.599Z,48.63
2019-04-14T20:12:08.759Z,51.27
2019-04-14T20:15:20.864Z,49.17
2019-04-14T20:18:04.757Z,47.67
2019-04-14T20:21:13.551Z,47.13
2019-04-14T20:23:52.358Z,48.60
2019-04-14T20:26:36.899Z,45.20
2019-04-14T20:29:14.320Z,45.43
2019-04-14T20:31:57.276Z,45.87
2019-04-14T20:34:27.920Z,44.17
2019-04-14T20:36:59.785Z,42.87
2019-04-14T20:39:54.848Z,46.70
2019-04-14T20:42:27.887Z,45.43
2019-04-14T20:44:59.880Z,44.90
2019-04-14T20:47:51.950Z,45.10
2019-04-14T20:50:25.433Z,43.37
2019-04-14T20:52:56.744Z,44.20
2019-04-14T20:55:28.045Z,48.47
2019-04-14T20:57:58.935Z,46.97
2019-04-14T21:00:32.492Z,43.67
2019-04-14T21:03:21.458Z,44.43
2019-04-14T21:06:31.064Z,44.27
2019-04-14T21:09:27.223Z,44.53
2019-04-14T21:12:06.271Z,44.00
2019-04-14T21:15:01.272Z,43.53
2019-04-14T21:17:48.162Z,45.47
2019-04-14T21:20:36.751Z,43.27
2019-04-14T21:23:42.422Z,42.27
2019-04-14T21:26:42.177Z,43.20
2019-04-14T21:29:26.011Z,41.57
2019-04-14T21:32:13.390Z,41.47
2019-04-14T21:35:09.816Z,41.87
2019-04-14T21:38:10.091Z,39.27
2019-04-14T21:40:46.451Z,41.00
2019-04-14T21:43:30.840Z,40.13
2019-04-14T21:46:03.175Z,41.90
2019-04-14T21:48:45.613Z,40.43
2019-04-14T21:51:16.220Z,39.37
2019-04-14T21:53:48.388Z,39.80
2019-04-14T21:56:20.873Z,39.70
2019-04-14T21:59:00.310Z,40.87
2019-04-14T22:01:52.299Z,40.70
2019-04-14T22:05:13.003Z,39.80
2019-04-14T22:08:07.093Z,40.80
2019-04-14T22:10:59.400Z,41.07
2019-04-14T22:13:31.163Z,39.93
2019-04-14T22:16:12.329Z,41.60
2019-04-14T22:18:43.362Z,38.43
2019-04-14T22:21:15.421Z,40.10
2019-04-14T22:24:00.403Z,39.27
2019-04-14T22:26:26.329Z,38.83
2019-04-14T22:28:55.410Z,39.53
2019-04-14T22:31:28.323Z,40.03
2019-04-14T22:34:01.337Z,38.00
2019-04-14T22:36:32.438Z,38.77
2019-04-14T22:39:07.551Z,38.70
2019-04-14T22:41:42.252Z,38.20
2019-04-14T22:44:20.207Z,38.83
2019-04-14T22:47:04.051Z,36.63
2019-04-14T22:49:43.313Z,37.93
2019-04-14T22:52:19.411Z,37.40
2019-04-14T22:54:52.370Z,37.90
2019-04-14T22:57:25.373Z,37.27
2019-04-14T22:59:56.433Z,36.83
2019-04-14T23:02:45.849Z,35.47
2019-04-14T23:05:43.264Z,37.27
2019-04-14T23:08:21.553Z,37.67
2019-04-14T23:11:03.914Z,38.10
2019-04-14T23:13:53.129Z,37.80
2019-04-14T23:16:32.868Z,35.00
2019-04-14T23:19:11.627Z,35.67
2019-04-14T23:22:11.391Z,37.30
2019-04-14T23:24:45.924Z,37.10
2019-04-14T23:27:16.508Z,36.77
2019-04-14T23:29:48.715Z,36.10
2019-04-14T23:32:25.715Z,36.60
2019-04-14T23:34:58.639Z,35.97
2019-04-14T23:37:31.624Z,35.13
2019-04-14T23:40:03.252Z,36.43
2019-04-14T23:42:34.632Z,35.27
2019-04-14T23:45:07.828Z,36.50
2019-04-14T23:47:41.263Z,35.73
2019-04-14T23:50:27.905Z,36.17
2019-04-14T23:53:15.729Z,36.03
2019-04-14T23:55:50.263Z,34.63
2019-04-14T23:58:23.312Z,33.97
